METAR Data
IDs: Format: Raw Decoded Include TAF

Data at: 0135 UTC 01 Mar 2021

LRCV 010130Z 28007KT CAVOK 00/M04 Q1025